Belleville, MI

2:51 PM EST on February 06, 2016 (GMT -0500)
HAGGERTY RD. 1.5 MILES SOUTH OF I-94 | | Change Station
CLOSE
Current Station
Personal Weather Station
Location: Belleville, MI
Elevation: 0 ft
Nearby Weather Stations

Elev 0 ft 42.19 °N, 83.44 °W | Updated 3 seconds ago

Partly Cloudy
Partly Cloudy
37.9 °F
Feels Like 38 °F
N
2.9
Wind Variable Wind from SSW
Gusts 4.9 mph

Today
High -- | Low -- °F
--% Chance of Precip.
Yesterday
High -- | Low -- °F
Precip. -- in
Pressure 30.21 in
Visibility 10.0 miles
Clouds Clear
Windchill 38 °F
Dew Point 15 °F
Humidity 39%
Rainfall 0.00 in
Snow Depth Not available.
7:42 AM 5:54 PM
Waning Crescent, 4% visible
METAR KYIP 061853Z 22013KT 10SM CLR 05/M04 A3019 RMK AO2 SLP229 T00501039
Pressure 30.21 in
Visibility 10.0 miles
Clouds Clear
Windchill 38 °F
Dew Point 15 °F
Humidity 39%
Rainfall 0.00 in
Snow Depth Not available.
7:42 AM 5:54 PM
Waning Crescent, 4% visible
METAR KYIP 061853Z 22013KT 10SM CLR 05/M04 A3019 RMK AO2 SLP229 T00501039

10-Day Weather Forecast

Almanac

Astronomy

Feb. 06, 2016 Rise Set
Actual Time
Civil Twilight
Nautical Twilight
Astronomical Twilight
Moon
Length of Visible Light
Length of Day
Tomorrow will be .
, % of the Moon is Illuminated

Today's Extremes

State Highs State Lows

Community

WunderPhotos

Upload Photos

1,891,037 photos uploaded!

WunderBlog® & News

Nearby

Air Quality

  Air Quality AQ Index Pollutant
Not available.

Snow Depth

Station Depth Elevation

Earthquake Activity

City Distance Mag. Time & Date
Minimum magnitude displayed is 2.5.

Coastal Water Temperatures

Place Temperature

Stations

Nearby Weather Stations

Station Location Temp. Windchill Dew Point Humidity Wind Precip. Elev Updated Type
                   

Watches & Warnings

There are currently no watches in effect.